createdAt,value
2019-05-21T20:29:43.025Z,116.57
2019-05-21T20:32:14.119Z,117.08
2019-05-21T20:34:43.818Z,116.80
2019-05-21T20:37:15.624Z,119.57
2019-05-21T20:39:47.758Z,116.40
2019-05-21T20:42:20.273Z,116.28
2019-05-21T20:44:50.326Z,115.92
2019-05-21T20:47:19.813Z,115.67
2019-05-21T20:49:50.972Z,116.05
2019-05-21T20:52:21.226Z,119.17
2019-05-21T20:54:52.715Z,116.97
2019-05-21T20:57:23.385Z,116.80
2019-05-21T20:59:52.972Z,118.10
2019-05-21T21:02:22.966Z,118.97
2019-05-21T21:04:52.586Z,118.15
2019-05-21T21:07:22.105Z,118.75
2019-05-21T21:09:52.135Z,116.47
2019-05-21T21:12:21.670Z,118.17
2019-05-21T21:14:52.198Z,115.95
2019-05-21T21:17:21.805Z,118.80
2019-05-21T21:19:51.304Z,121.07
2019-05-21T21:22:20.883Z,121.40
2019-05-21T21:24:50.372Z,119.70
2019-05-21T21:27:20.148Z,118.55
2019-05-21T21:29:50.550Z,118.62
2019-05-21T21:32:20.613Z,124.62
2019-05-21T21:34:50.113Z,123.45
2019-05-21T21:37:19.976Z,119.13
2019-05-21T21:39:49.543Z,119.35
2019-05-21T21:42:18.965Z,119.15
2019-05-21T21:44:48.463Z,120.72
2019-05-21T21:47:18.207Z,122.13
2019-05-21T21:49:48.914Z,123.65
2019-05-21T21:52:18.508Z,119.02
2019-05-21T21:54:47.883Z,121.10
2019-05-21T21:57:17.468Z,119.15
2019-05-21T21:59:47.098Z,121.53
2019-05-21T22:02:23.454Z,120.13
2019-05-21T22:04:53.692Z,119.93
2019-05-21T22:07:23.574Z,126.53
2019-05-21T22:09:53.742Z,125.70
2019-05-21T22:12:24.520Z,122.67
2019-05-21T22:14:57.506Z,122.17
2019-05-21T22:17:27.066Z,121.00
2019-05-21T22:19:57.824Z,122.28
2019-05-21T22:22:27.382Z,122.65
2019-05-21T22:24:57.264Z,128.45
2019-05-21T22:27:26.739Z,128.30
2019-05-21T22:29:56.334Z,128.07
2019-05-21T22:32:26.574Z,128.80
2019-05-21T22:34:55.993Z,124.95
2019-05-21T22:37:26.471Z,127.90
2019-05-21T22:39:55.858Z,122.75
2019-05-21T22:42:25.272Z,123.30
2019-05-21T22:45:07.524Z,127.10
2019-05-21T22:47:26.597Z,131.75
2019-05-21T22:49:55.968Z,127.70
2019-05-21T22:52:25.360Z,125.87
2019-05-21T22:54:54.819Z,124.62
2019-05-21T22:57:26.160Z,127.70
2019-05-21T22:59:55.331Z,124.27
2019-05-21T23:02:26.697Z,128.53
2019-05-21T23:04:56.308Z,123.82
2019-05-21T23:07:25.779Z,127.65
2019-05-21T23:09:56.023Z,126.78
2019-05-21T23:12:25.803Z,125.25
2019-05-21T23:14:55.276Z,130.32
2019-05-21T23:17:29.092Z,132.10
2019-05-21T23:20:14.102Z,131.12
2019-05-21T23:22:47.276Z,135.22
2019-05-21T23:25:18.194Z,127.90
2019-05-21T23:27:48.579Z,124.53
2019-05-21T23:30:20.365Z,127.35
2019-05-21T23:32:50.658Z,125.15
2019-05-21T23:35:20.481Z,126.50
2019-05-21T23:37:51.236Z,125.62
2019-05-21T23:40:22.212Z,130.27
2019-05-21T23:42:51.698Z,130.52
2019-05-21T23:45:21.166Z,129.97
2019-05-21T23:47:50.661Z,134.03
2019-05-21T23:50:20.718Z,132.82
2019-05-21T23:52:51.784Z,133.55
2019-05-21T23:55:21.204Z,131.25
2019-05-21T23:57:50.751Z,128.90
